sensor_id;sensor_type;location;lat;lon;timestamp;P1;durP1;ratioP1;P2;durP2;ratioP2
2838;SDS011;1427;48.510;9.060;2023-08-07T00:00:05;45.60;;;1.30;;
2838;SDS011;1427;48.510;9.060;2023-08-07T00:02:35;45.50;;;1.47;;
2838;SDS011;1427;48.510;9.060;2023-08-07T00:05:04;45.40;;;1.20;;
2838;SDS011;1427;48.510;9.060;2023-08-07T00:07:33;45.70;;;1.30;;
2838;SDS011;1427;48.510;9.060;2023-08-07T00:10:01;45.93;;;1.50;;
2838;SDS011;1427;48.510;9.060;2023-08-07T00:12:31;45.60;;;1.43;;
2838;SDS011;1427;48.510;9.060;2023-08-07T00:15:00;45.70;;;1.50;;
2838;SDS011;1427;48.510;9.060;2023-08-07T00:17:29;45.53;;;1.10;;
2838;SDS011;1427;48.510;9.060;2023-08-07T00:19:57;45.47;;;1.40;;
2838;SDS011;1427;48.510;9.060;2023-08-07T00:22:25;45.63;;;1.37;;
2838;SDS011;1427;48.510;9.060;2023-08-07T00:24:53;45.50;;;1.27;;
2838;SDS011;1427;48.510;9.060;2023-08-07T00:27:21;45.60;;;1.50;;
2838;SDS011;1427;48.510;9.060;2023-08-07T00:29:49;48.40;;;1.50;;
2838;SDS011;1427;48.510;9.060;2023-08-07T00:32:19;45.60;;;1.20;;
2838;SDS011;1427;48.510;9.060;2023-08-07T00:34:48;45.50;;;1.30;;
2838;SDS011;1427;48.510;9.060;2023-08-07T00:37:16;45.20;;;1.10;;
2838;SDS011;1427;48.510;9.060;2023-08-07T00:39:44;45.30;;;1.13;;
2838;SDS011;1427;48.510;9.060;2023-08-07T00:42:12;45.53;;;1.10;;
2838;SDS011;1427;48.510;9.060;2023-08-07T00:44:40;45.60;;;1.60;;
2838;SDS011;1427;48.510;9.060;2023-08-07T00:47:08;45.60;;;1.37;;
2838;SDS011;1427;48.510;9.060;2023-08-07T00:49:37;46.93;;;1.77;;
2838;SDS011;1427;48.510;9.060;2023-08-07T00:52:06;45.60;;;1.20;;
2838;SDS011;1427;48.510;9.060;2023-08-07T00:54:35;45.30;;;1.30;;
2838;SDS011;1427;48.510;9.060;2023-08-07T00:57:07;45.83;;;1.60;;
2838;SDS011;1427;48.510;9.060;2023-08-07T00:59:38;45.77;;;1.40;;
2838;SDS011;1427;48.510;9.060;2023-08-07T01:02:07;45.60;;;1.43;;
2838;SDS011;1427;48.510;9.060;2023-08-07T01:04:35;45.50;;;1.27;;
2838;SDS011;1427;48.510;9.060;2023-08-07T01:07:05;45.70;;;1.30;;
2838;SDS011;1427;48.510;9.060;2023-08-07T01:09:34;45.30;;;1.23;;
2838;SDS011;1427;48.510;9.060;2023-08-07T01:12:02;45.80;;;1.50;;
2838;SDS011;1427;48.510;9.060;2023-08-07T01:14:40;45.30;;;1.20;;
2838;SDS011;1427;48.510;9.060;2023-08-07T01:17:19;45.57;;;1.20;;
2838;SDS011;1427;48.510;9.060;2023-08-07T01:19:51;45.90;;;1.30;;
2838;SDS011;1427;48.510;9.060;2023-08-07T01:22:21;45.83;;;1.50;;
2838;SDS011;1427;48.510;9.060;2023-08-07T01:24:49;45.67;;;1.20;;
2838;SDS011;1427;48.510;9.060;2023-08-07T01:27:24;46.07;;;1.47;;
2838;SDS011;1427;48.510;9.060;2023-08-07T01:30:00;45.80;;;1.40;;
2838;SDS011;1427;48.510;9.060;2023-08-07T01:32:38;45.67;;;1.60;;
2838;SDS011;1427;48.510;9.060;2023-08-07T01:35:15;45.40;;;1.37;;
2838;SDS011;1427;48.510;9.060;2023-08-07T01:37:47;46.20;;;2.03;;
2838;SDS011;1427;48.510;9.060;2023-08-07T01:40:17;45.67;;;1.50;;
2838;SDS011;1427;48.510;9.060;2023-08-07T01:42:46;45.50;;;1.60;;
2838;SDS011;1427;48.510;9.060;2023-08-07T01:45:21;45.80;;;1.20;;
2838;SDS011;1427;48.510;9.060;2023-08-07T01:47:50;45.40;;;1.20;;
2838;SDS011;1427;48.510;9.060;2023-08-07T01:50:19;45.47;;;1.23;;
2838;SDS011;1427;48.510;9.060;2023-08-07T01:52:49;45.50;;;1.37;;
2838;SDS011;1427;48.510;9.060;2023-08-07T01:55:17;45.60;;;1.60;;
2838;SDS011;1427;48.510;9.060;2023-08-07T01:57:46;45.50;;;1.27;;
2838;SDS011;1427;48.510;9.060;2023-08-07T02:00:14;45.77;;;1.43;;
2838;SDS011;1427;48.510;9.060;2023-08-07T02:02:43;45.53;;;1.57;;
2838;SDS011;1427;48.510;9.060;2023-08-07T02:05:13;45.73;;;1.50;;
2838;SDS011;1427;48.510;9.060;2023-08-07T02:07:42;45.27;;;1.37;;
2838;SDS011;1427;48.510;9.060;2023-08-07T02:10:12;46.17;;;1.90;;
2838;SDS011;1427;48.510;9.060;2023-08-07T02:12:40;45.60;;;1.33;;
2838;SDS011;1427;48.510;9.060;2023-08-07T02:15:09;45.60;;;1.30;;
2838;SDS011;1427;48.510;9.060;2023-08-07T02:17:37;45.77;;;1.63;;
2838;SDS011;1427;48.510;9.060;2023-08-07T02:20:08;46.10;;;1.60;;
2838;SDS011;1427;48.510;9.060;2023-08-07T02:22:37;45.60;;;1.30;;
2838;SDS011;1427;48.510;9.060;2023-08-07T02:25:06;45.77;;;1.43;;
2838;SDS011;1427;48.510;9.060;2023-08-07T02:27:36;45.63;;;1.30;;
2838;SDS011;1427;48.510;9.060;2023-08-07T02:30:04;45.30;;;1.40;;
2838;SDS011;1427;48.510;9.060;2023-08-07T02:32:33;45.70;;;1.40;;
2838;SDS011;1427;48.510;9.060;2023-08-07T02:35:02;45.87;;;1.60;;
2838;SDS011;1427;48.510;9.060;2023-08-07T02:37:30;46.17;;;1.80;;
2838;SDS011;1427;48.510;9.060;2023-08-07T02:39:58;45.93;;;1.60;;
2838;SDS011;1427;48.510;9.060;2023-08-07T02:42:26;45.50;;;1.27;;
2838;SDS011;1427;48.510;9.060;2023-08-07T02:44:55;45.50;;;1.30;;
2838;SDS011;1427;48.510;9.060;2023-08-07T02:47:23;45.67;;;1.40;;
2838;SDS011;1427;48.510;9.060;2023-08-07T02:49:52;47.20;;;1.83;;
2838;SDS011;1427;48.510;9.060;2023-08-07T02:52:20;45.70;;;1.60;;
2838;SDS011;1427;48.510;9.060;2023-08-07T02:54:48;45.37;;;1.20;;
2838;SDS011;1427;48.510;9.060;2023-08-07T02:57:16;45.40;;;1.20;;
2838;SDS011;1427;48.510;9.060;2023-08-07T02:59:44;46.77;;;2.27;;
2838;SDS011;1427;48.510;9.060;2023-08-07T03:02:13;45.60;;;1.40;;
2838;SDS011;1427;48.510;9.060;2023-08-07T03:04:41;45.17;;;1.20;;
2838;SDS011;1427;48.510;9.060;2023-08-07T03:07:09;45.60;;;1.40;;
2838;SDS011;1427;48.510;9.060;2023-08-07T03:09:38;46.40;;;1.60;;
2838;SDS011;1427;48.510;9.060;2023-08-07T03:12:06;45.47;;;1.20;;
2838;SDS011;1427;48.510;9.060;2023-08-07T03:14:34;45.37;;;1.30;;
2838;SDS011;1427;48.510;9.060;2023-08-07T03:17:03;45.67;;;1.50;;
2838;SDS011;1427;48.510;9.060;2023-08-07T03:19:32;45.77;;;1.40;;
2838;SDS011;1427;48.510;9.060;2023-08-07T03:22:00;48.80;;;1.87;;
2838;SDS011;1427;48.510;9.060;2023-08-07T03:24:28;45.40;;;1.30;;
2838;SDS011;1427;48.510;9.060;2023-08-07T03:26:56;46.07;;;1.20;;
2838;SDS011;1427;48.510;9.060;2023-08-07T03:29:25;46.10;;;1.50;;
2838;SDS011;1427;48.510;9.060;2023-08-07T03:31:53;45.77;;;1.30;;
2838;SDS011;1427;48.510;9.060;2023-08-07T03:34:21;45.87;;;1.77;;
2838;SDS011;1427;48.510;9.060;2023-08-07T03:36:51;45.50;;;1.60;;
2838;SDS011;1427;48.510;9.060;2023-08-07T03:39:19;45.57;;;1.40;;
2838;SDS011;1427;48.510;9.060;2023-08-07T03:41:47;46.10;;;1.60;;
2838;SDS011;1427;48.510;9.060;2023-08-07T03:44:17;45.40;;;1.30;;
2838;SDS011;1427;48.510;9.060;2023-08-07T03:46:45;45.50;;;1.40;;
2838;SDS011;1427;48.510;9.060;2023-08-07T03:49:13;45.60;;;1.30;;
2838;SDS011;1427;48.510;9.060;2023-08-07T03:51:41;45.60;;;1.30;;
2838;SDS011;1427;48.510;9.060;2023-08-07T03:54:11;45.50;;;1.40;;
2838;SDS011;1427;48.510;9.060;2023-08-07T03:56:39;46.10;;;1.70;;
2838;SDS011;1427;48.510;9.060;2023-08-07T03:59:07;45.87;;;1.60;;
2838;SDS011;1427;48.510;9.060;2023-08-07T04:01:35;45.53;;;1.20;;
2838;SDS011;1427;48.510;9.060;2023-08-07T04:04:03;45.50;;;1.20;;
2838;SDS011;1427;48.510;9.060;2023-08-07T04:06:31;45.60;;;1.30;;
2838;SDS011;1427;48.510;9.060;2023-08-07T04:08:59;46.13;;;1.50;;
2838;SDS011;1427;48.510;9.060;2023-08-07T04:11:31;45.60;;;1.33;;
2838;SDS011;1427;48.510;9.060;2023-08-07T04:14:00;45.20;;;1.20;;
2838;SDS011;1427;48.510;9.060;2023-08-07T04:16:28;45.57;;;1.23;;
2838;SDS011;1427;48.510;9.060;2023-08-07T04:18:57;45.30;;;1.30;;
2838;SDS011;1427;48.510;9.060;2023-08-07T04:21:25;46.40;;;1.70;;
2838;SDS011;1427;48.510;9.060;2023-08-07T04:23:53;45.30;;;1.30;;
2838;SDS011;1427;48.510;9.060;2023-08-07T04:26:21;46.17;;;2.37;;
2838;SDS011;1427;48.510;9.060;2023-08-07T04:28:51;47.47;;;4.60;;
2838;SDS011;1427;48.510;9.060;2023-08-07T04:31:19;47.63;;;4.43;;
2838;SDS011;1427;48.510;9.060;2023-08-07T04:33:47;46.97;;;3.77;;
2838;SDS011;1427;48.510;9.060;2023-08-07T04:36:15;46.93;;;3.43;;
2838;SDS011;1427;48.510;9.060;2023-08-07T04:38:43;47.40;;;4.60;;
2838;SDS011;1427;48.510;9.060;2023-08-07T04:41:11;46.47;;;2.70;;
2838;SDS011;1427;48.510;9.060;2023-08-07T04:43:39;46.83;;;3.30;;
2838;SDS011;1427;48.510;9.060;2023-08-07T04:46:10;46.83;;;3.27;;
2838;SDS011;1427;48.510;9.060;2023-08-07T04:48:39;46.90;;;3.20;;
2838;SDS011;1427;48.510;9.060;2023-08-07T04:51:07;46.87;;;3.17;;
2838;SDS011;1427;48.510;9.060;2023-08-07T04:53:35;47.60;;;3.87;;
2838;SDS011;1427;48.510;9.060;2023-08-07T04:56:03;47.90;;;3.23;;
2838;SDS011;1427;48.510;9.060;2023-08-07T04:58:31;47.00;;;3.37;;
2838;SDS011;1427;48.510;9.060;2023-08-07T05:00:59;46.37;;;2.50;;
2838;SDS011;1427;48.510;9.060;2023-08-07T05:03:29;47.53;;;4.10;;
2838;SDS011;1427;48.510;9.060;2023-08-07T05:05:58;47.17;;;3.10;;
2838;SDS011;1427;48.510;9.060;2023-08-07T05:08:26;47.10;;;3.43;;
2838;SDS011;1427;48.510;9.060;2023-08-07T05:10:54;46.87;;;3.13;;
2838;SDS011;1427;48.510;9.060;2023-08-07T05:13:22;47.07;;;3.80;;
2838;SDS011;1427;48.510;9.060;2023-08-07T05:15:50;46.80;;;3.40;;
2838;SDS011;1427;48.510;9.060;2023-08-07T05:18:18;46.30;;;2.90;;
2838;SDS011;1427;48.510;9.060;2023-08-07T05:20:48;50.27;;;3.07;;
2838;SDS011;1427;48.510;9.060;2023-08-07T05:23:16;46.80;;;3.67;;
2838;SDS011;1427;48.510;9.060;2023-08-07T05:25:44;46.57;;;3.07;;
2838;SDS011;1427;48.510;9.060;2023-08-07T05:28:15;46.70;;;3.40;;
2838;SDS011;1427;48.510;9.060;2023-08-07T05:30:43;46.27;;;2.80;;
2838;SDS011;1427;48.510;9.060;2023-08-07T05:33:11;47.07;;;3.60;;
2838;SDS011;1427;48.510;9.060;2023-08-07T05:35:41;46.47;;;2.70;;
2838;SDS011;1427;48.510;9.060;2023-08-07T05:38:10;48.10;;;3.60;;
2838;SDS011;1427;48.510;9.060;2023-08-07T05:40:38;50.90;;;4.10;;
2838;SDS011;1427;48.510;9.060;2023-08-07T05:43:07;46.97;;;3.63;;
2838;SDS011;1427;48.510;9.060;2023-08-07T05:45:36;48.50;;;3.00;;
2838;SDS011;1427;48.510;9.060;2023-08-07T05:48:04;46.73;;;3.00;;
2838;SDS011;1427;48.510;9.060;2023-08-07T05:50:35;46.20;;;2.60;;
2838;SDS011;1427;48.510;9.060;2023-08-07T05:53:03;46.40;;;2.77;;
2838;SDS011;1427;48.510;9.060;2023-08-07T05:55:34;46.37;;;2.80;;
2838;SDS011;1427;48.510;9.060;2023-08-07T05:58:02;46.83;;;3.13;;
2838;SDS011;1427;48.510;9.060;2023-08-07T06:00:30;46.50;;;3.10;;
2838;SDS011;1427;48.510;9.060;2023-08-07T06:02:59;46.50;;;3.30;;
2838;SDS011;1427;48.510;9.060;2023-08-07T06:05:27;46.90;;;3.20;;
2838;SDS011;1427;48.510;9.060;2023-08-07T06:07:56;46.07;;;2.30;;
2838;SDS011;1427;48.510;9.060;2023-08-07T06:10:24;46.57;;;3.07;;
2838;SDS011;1427;48.510;9.060;2023-08-07T06:12:54;46.47;;;3.00;;
2838;SDS011;1427;48.510;9.060;2023-08-07T06:15:22;46.67;;;3.20;;
2838;SDS011;1427;48.510;9.060;2023-08-07T06:17:50;46.87;;;3.70;;
2838;SDS011;1427;48.510;9.060;2023-08-07T06:20:18;46.97;;;3.27;;
2838;SDS011;1427;48.510;9.060;2023-08-07T06:22:47;46.80;;;3.07;;
2838;SDS011;1427;48.510;9.060;2023-08-07T06:25:15;46.30;;;2.80;;
2838;SDS011;1427;48.510;9.060;2023-08-07T06:27:43;46.50;;;3.00;;
2838;SDS011;1427;48.510;9.060;2023-08-07T06:30:12;46.97;;;3.87;;
2838;SDS011;1427;48.510;9.060;2023-08-07T06:32:41;46.90;;;3.47;;
2838;SDS011;1427;48.510;9.060;2023-08-07T06:35:09;46.50;;;3.40;;
2838;SDS011;1427;48.510;9.060;2023-08-07T06:37:37;48.07;;;3.83;;
2838;SDS011;1427;48.510;9.060;2023-08-07T06:40:06;46.50;;;2.60;;
2838;SDS011;1427;48.510;9.060;2023-08-07T06:42:35;46.47;;;2.80;;
2838;SDS011;1427;48.510;9.060;2023-08-07T06:45:03;46.80;;;3.23;;
2838;SDS011;1427;48.510;9.060;2023-08-07T06:47:34;46.40;;;2.93;;
2838;SDS011;1427;48.510;9.060;2023-08-07T06:50:02;46.53;;;3.07;;
2838;SDS011;1427;48.510;9.060;2023-08-07T06:52:30;46.80;;;3.70;;
2838;SDS011;1427;48.510;9.060;2023-08-07T06:54:58;47.37;;;3.57;;
2838;SDS011;1427;48.510;9.060;2023-08-07T06:57:26;46.47;;;2.70;;
2838;SDS011;1427;48.510;9.060;2023-08-07T06:59:54;46.50;;;2.90;;
2838;SDS011;1427;48.510;9.060;2023-08-07T07:02:22;47.10;;;3.67;;
2838;SDS011;1427;48.510;9.060;2023-08-07T07:04:52;46.17;;;2.90;;
2838;SDS011;1427;48.510;9.060;2023-08-07T07:07:20;46.60;;;3.13;;
2838;SDS011;1427;48.510;9.060;2023-08-07T07:09:48;47.13;;;3.27;;
2838;SDS011;1427;48.510;9.060;2023-08-07T07:12:16;46.70;;;3.37;;
2838;SDS011;1427;48.510;9.060;2023-08-07T07:14:44;46.90;;;3.20;;
2838;SDS011;1427;48.510;9.060;2023-08-07T07:17:12;46.77;;;3.17;;
2838;SDS011;1427;48.510;9.060;2023-08-07T07:19:40;46.97;;;3.87;;
2838;SDS011;1427;48.510;9.060;2023-08-07T07:22:11;46.20;;;2.67;;
2838;SDS011;1427;48.510;9.060;2023-08-07T07:24:39;47.00;;;3.43;;
2838;SDS011;1427;48.510;9.060;2023-08-07T07:27:07;46.47;;;3.30;;
2838;SDS011;1427;48.510;9.060;2023-08-07T07:29:36;47.20;;;3.33;;
2838;SDS011;1427;48.510;9.060;2023-08-07T07:32:04;51.70;;;3.10;;
2838;SDS011;1427;48.510;9.060;2023-08-07T07:34:33;46.47;;;3.30;;
2838;SDS011;1427;48.510;9.060;2023-08-07T07:37:01;50.00;;;4.00;;
2838;SDS011;1427;48.510;9.060;2023-08-07T07:39:31;46.07;;;3.20;;
2838;SDS011;1427;48.510;9.060;2023-08-07T07:41:59;46.43;;;3.03;;
2838;SDS011;1427;48.510;9.060;2023-08-07T07:44:27;46.30;;;3.00;;
2838;SDS011;1427;48.510;9.060;2023-08-07T07:46:55;46.80;;;3.50;;
2838;SDS011;1427;48.510;9.060;2023-08-07T07:49:24;46.60;;;3.13;;
2838;SDS011;1427;48.510;9.060;2023-08-07T07:51:52;47.27;;;3.90;;
2838;SDS011;1427;48.510;9.060;2023-08-07T07:54:20;46.87;;;3.23;;
2838;SDS011;1427;48.510;9.060;2023-08-07T07:56:50;46.30;;;3.00;;
2838;SDS011;1427;48.510;9.060;2023-08-07T07:59:18;47.43;;;3.63;;
2838;SDS011;1427;48.510;9.060;2023-08-07T08:01:46;46.80;;;3.03;;
2838;SDS011;1427;48.510;9.060;2023-08-07T08:04:14;47.20;;;4.13;;
2838;SDS011;1427;48.510;9.060;2023-08-07T08:06:42;46.67;;;3.07;;
2838;SDS011;1427;48.510;9.060;2023-08-07T08:09:11;47.10;;;3.20;;
2838;SDS011;1427;48.510;9.060;2023-08-07T08:11:39;46.60;;;3.50;;
2838;SDS011;1427;48.510;9.060;2023-08-07T08:14:08;46.47;;;3.37;;
2838;SDS011;1427;48.510;9.060;2023-08-07T08:16:37;47.00;;;3.30;;
2838;SDS011;1427;48.510;9.060;2023-08-07T08:19:05;46.80;;;3.83;;
2838;SDS011;1427;48.510;9.060;2023-08-07T08:21:35;46.90;;;3.77;;
2838;SDS011;1427;48.510;9.060;2023-08-07T08:24:03;46.97;;;3.30;;
2838;SDS011;1427;48.510;9.060;2023-08-07T08:26:32;47.90;;;3.83;;
2838;SDS011;1427;48.510;9.060;2023-08-07T08:29:00;46.50;;;3.17;;
2838;SDS011;1427;48.510;9.060;2023-08-07T08:31:29;46.40;;;2.70;;
2838;SDS011;1427;48.510;9.060;2023-08-07T08:33:58;46.50;;;3.10;;
2838;SDS011;1427;48.510;9.060;2023-08-07T08:36:26;46.30;;;3.17;;
2838;SDS011;1427;48.510;9.060;2023-08-07T08:38:54;46.67;;;3.50;;
2838;SDS011;1427;48.510;9.060;2023-08-07T08:41:22;46.73;;;3.23;;
2838;SDS011;1427;48.510;9.060;2023-08-07T08:43:51;46.50;;;3.20;;
2838;SDS011;1427;48.510;9.060;2023-08-07T08:46:21;46.20;;;2.57;;
2838;SDS011;1427;48.510;9.060;2023-08-07T08:48:56;46.60;;;3.00;;
2838;SDS011;1427;48.510;9.060;2023-08-07T08:51:25;47.10;;;3.30;;
2838;SDS011;1427;48.510;9.060;2023-08-07T08:53:53;47.50;;;3.20;;
2838;SDS011;1427;48.510;9.060;2023-08-07T08:56:23;47.37;;;2.57;;
2838;SDS011;1427;48.510;9.060;2023-08-07T08:58:52;49.13;;;4.40;;
2838;SDS011;1427;48.510;9.060;2023-08-07T09:01:20;46.73;;;3.23;;
2838;SDS011;1427;48.510;9.060;2023-08-07T09:03:53;46.60;;;3.20;;
2838;SDS011;1427;48.510;9.060;2023-08-07T09:06:23;48.60;;;4.07;;
2838;SDS011;1427;48.510;9.060;2023-08-07T09:08:53;46.80;;;3.00;;
2838;SDS011;1427;48.510;9.060;2023-08-07T09:11:22;46.60;;;3.10;;
2838;SDS011;1427;48.510;9.060;2023-08-07T09:13:50;47.50;;;3.03;;
2838;SDS011;1427;48.510;9.060;2023-08-07T09:16:24;46.00;;;3.10;;
2838;SDS011;1427;48.510;9.060;2023-08-07T09:18:55;46.80;;;3.20;;
2838;SDS011;1427;48.510;9.060;2023-08-07T09:21:23;46.40;;;3.20;;
2838;SDS011;1427;48.510;9.060;2023-08-07T09:23:51;46.17;;;2.80;;
2838;SDS011;1427;48.510;9.060;2023-08-07T09:26:21;47.07;;;3.60;;
2838;SDS011;1427;48.510;9.060;2023-08-07T09:28:51;46.40;;;3.17;;
2838;SDS011;1427;48.510;9.060;2023-08-07T09:31:20;46.57;;;3.57;;
2838;SDS011;1427;48.510;9.060;2023-08-07T09:33:49;46.17;;;2.87;;
2838;SDS011;1427;48.510;9.060;2023-08-07T09:36:19;51.00;;;3.20;;
2838;SDS011;1427;48.510;9.060;2023-08-07T09:38:50;46.20;;;3.00;;
2838;SDS011;1427;48.510;9.060;2023-08-07T09:41:18;46.10;;;2.90;;
2838;SDS011;1427;48.510;9.060;2023-08-07T09:43:46;46.43;;;3.03;;
2838;SDS011;1427;48.510;9.060;2023-08-07T09:46:15;46.97;;;3.47;;
2838;SDS011;1427;48.510;9.060;2023-08-07T09:48:46;46.77;;;3.70;;
2838;SDS011;1427;48.510;9.060;2023-08-07T09:51:14;46.60;;;3.47;;
2838;SDS011;1427;48.510;9.060;2023-08-07T09:53:44;46.07;;;2.53;;
2838;SDS011;1427;48.510;9.060;2023-08-07T09:56:14;46.40;;;3.10;;
2838;SDS011;1427;48.510;9.060;2023-08-07T09:58:46;47.57;;;3.00;;
2838;SDS011;1427;48.510;9.060;2023-08-07T10:01:16;46.50;;;3.33;;
2838;SDS011;1427;48.510;9.060;2023-08-07T10:03:44;48.50;;;4.83;;
2838;SDS011;1427;48.510;9.060;2023-08-07T10:06:13;46.40;;;3.00;;
2838;SDS011;1427;48.510;9.060;2023-08-07T10:08:44;46.03;;;2.50;;
2838;SDS011;1427;48.510;9.060;2023-08-07T10:11:12;46.80;;;3.10;;
2838;SDS011;1427;48.510;9.060;2023-08-07T10:13:44;46.10;;;2.80;;
2838;SDS011;1427;48.510;9.060;2023-08-07T10:16:13;46.00;;;2.73;;
2838;SDS011;1427;48.510;9.060;2023-08-07T10:18:41;46.00;;;2.43;;
2838;SDS011;1427;48.510;9.060;2023-08-07T10:21:23;47.87;;;3.50;;
2838;SDS011;1427;48.510;9.060;2023-08-07T10:23:54;45.70;;;2.90;;
2838;SDS011;1427;48.510;9.060;2023-08-07T10:26:24;46.50;;;3.40;;
2838;SDS011;1427;48.510;9.060;2023-08-07T10:28:53;50.37;;;3.87;;
2838;SDS011;1427;48.510;9.060;2023-08-07T10:31:22;46.27;;;3.03;;
2838;SDS011;1427;48.510;9.060;2023-08-07T10:33:51;46.87;;;3.20;;
2838;SDS011;1427;48.510;9.060;2023-08-07T10:36:20;46.57;;;3.40;;
2838;SDS011;1427;48.510;9.060;2023-08-07T10:38:51;46.77;;;3.53;;
2838;SDS011;1427;48.510;9.060;2023-08-07T10:41:39;46.97;;;3.63;;
2838;SDS011;1427;48.510;9.060;2023-08-07T10:44:17;46.30;;;2.97;;
2838;SDS011;1427;48.510;9.060;2023-08-07T10:46:47;46.20;;;3.20;;
2838;SDS011;1427;48.510;9.060;2023-08-07T10:49:35;47.80;;;3.33;;
2838;SDS011;1427;48.510;9.060;2023-08-07T10:52:07;46.80;;;3.57;;
2838;SDS011;1427;48.510;9.060;2023-08-07T10:54:38;47.47;;;3.67;;
2838;SDS011;1427;48.510;9.060;2023-08-07T10:57:10;46.83;;;3.27;;
2838;SDS011;1427;48.510;9.060;2023-08-07T10:59:43;46.77;;;3.33;;
2838;SDS011;1427;48.510;9.060;2023-08-07T11:02:21;46.77;;;3.17;;
2838;SDS011;1427;48.510;9.060;2023-08-07T11:04:51;46.40;;;3.23;;
2838;SDS011;1427;48.510;9.060;2023-08-07T11:07:24;47.17;;;3.37;;
2838;SDS011;1427;48.510;9.060;2023-08-07T11:09:54;47.07;;;3.80;;
2838;SDS011;1427;48.510;9.060;2023-08-07T11:12:24;46.40;;;3.30;;
2838;SDS011;1427;48.510;9.060;2023-08-07T11:14:52;46.50;;;2.77;;
2838;SDS011;1427;48.510;9.060;2023-08-07T11:17:24;46.17;;;3.03;;
2838;SDS011;1427;48.510;9.060;2023-08-07T11:19:52;46.60;;;2.90;;
2838;SDS011;1427;48.510;9.060;2023-08-07T11:22:21;46.20;;;2.70;;
2838;SDS011;1427;48.510;9.060;2023-08-07T11:24:49;46.80;;;3.10;;
2838;SDS011;1427;48.510;9.060;2023-08-07T11:27:21;47.07;;;3.57;;
2838;SDS011;1427;48.510;9.060;2023-08-07T11:29:49;46.40;;;2.90;;
2838;SDS011;1427;48.510;9.060;2023-08-07T11:32:18;46.73;;;4.23;;
2838;SDS011;1427;48.510;9.060;2023-08-07T11:34:49;47.47;;;3.13;;
2838;SDS011;1427;48.510;9.060;2023-08-07T11:37:17;47.50;;;4.03;;
2838;SDS011;1427;48.510;9.060;2023-08-07T11:39:46;46.93;;;3.47;;
2838;SDS011;1427;48.510;9.060;2023-08-07T11:42:14;46.50;;;3.50;;
2838;SDS011;1427;48.510;9.060;2023-08-07T11:44:43;46.37;;;3.33;;
2838;SDS011;1427;48.510;9.060;2023-08-07T11:47:12;46.83;;;3.70;;
2838;SDS011;1427;48.510;9.060;2023-08-07T11:49:42;46.87;;;3.80;;
2838;SDS011;1427;48.510;9.060;2023-08-07T11:52:10;46.13;;;3.17;;
2838;SDS011;1427;48.510;9.060;2023-08-07T11:54:40;48.27;;;3.40;;
2838;SDS011;1427;48.510;9.060;2023-08-07T11:57:14;47.90;;;3.73;;
2838;SDS011;1427;48.510;9.060;2023-08-07T11:59:48;47.07;;;4.00;;
2838;SDS011;1427;48.510;9.060;2023-08-07T12:02:21;46.77;;;2.93;;
2838;SDS011;1427;48.510;9.060;2023-08-07T12:04:52;47.40;;;4.50;;
2838;SDS011;1427;48.510;9.060;2023-08-07T12:07:24;46.97;;;3.80;;
2838;SDS011;1427;48.510;9.060;2023-08-07T12:09:56;46.40;;;3.50;;
2838;SDS011;1427;48.510;9.060;2023-08-07T12:12:24;46.80;;;3.43;;
2838;SDS011;1427;48.510;9.060;2023-08-07T12:14:53;48.03;;;3.13;;
2838;SDS011;1427;48.510;9.060;2023-08-07T12:17:22;46.80;;;3.70;;
2838;SDS011;1427;48.510;9.060;2023-08-07T12:19:50;47.10;;;3.80;;
2838;SDS011;1427;48.510;9.060;2023-08-07T12:22:19;46.47;;;3.10;;
2838;SDS011;1427;48.510;9.060;2023-08-07T12:24:47;46.50;;;2.83;;
2838;SDS011;1427;48.510;9.060;2023-08-07T12:27:15;47.17;;;4.00;;
2838;SDS011;1427;48.510;9.060;2023-08-07T12:29:43;46.90;;;3.60;;
2838;SDS011;1427;48.510;9.060;2023-08-07T12:32:13;46.30;;;3.10;;
2838;SDS011;1427;48.510;9.060;2023-08-07T12:34:41;46.20;;;3.00;;
2838;SDS011;1427;48.510;9.060;2023-08-07T12:37:12;46.57;;;3.40;;
2838;SDS011;1427;48.510;9.060;2023-08-07T12:39:40;47.17;;;3.80;;
2838;SDS011;1427;48.510;9.060;2023-08-07T12:42:11;46.50;;;3.43;;
2838;SDS011;1427;48.510;9.060;2023-08-07T12:44:42;46.47;;;3.10;;
2838;SDS011;1427;48.510;9.060;2023-08-07T12:47:10;46.43;;;3.00;;
2838;SDS011;1427;48.510;9.060;2023-08-07T12:49:40;46.40;;;3.40;;
2838;SDS011;1427;48.510;9.060;2023-08-07T12:52:08;46.80;;;3.70;;
2838;SDS011;1427;48.510;9.060;2023-08-07T12:54:36;46.60;;;3.27;;
2838;SDS011;1427;48.510;9.060;2023-08-07T12:57:04;46.80;;;3.40;;
2838;SDS011;1427;48.510;9.060;2023-08-07T12:59:32;46.93;;;3.07;;
2838;SDS011;1427;48.510;9.060;2023-08-07T13:02:00;47.57;;;4.43;;
2838;SDS011;1427;48.510;9.060;2023-08-07T13:04:29;46.90;;;3.43;;
2838;SDS011;1427;48.510;9.060;2023-08-07T13:07:00;47.70;;;4.03;;
2838;SDS011;1427;48.510;9.060;2023-08-07T13:09:28;46.27;;;3.33;;
2838;SDS011;1427;48.510;9.060;2023-08-07T13:11:57;47.37;;;4.00;;
2838;SDS011;1427;48.510;9.060;2023-08-07T13:14:25;46.37;;;3.53;;
2838;SDS011;1427;48.510;9.060;2023-08-07T13:16:54;47.27;;;3.90;;
2838;SDS011;1427;48.510;9.060;2023-08-07T13:19:23;46.67;;;3.40;;
2838;SDS011;1427;48.510;9.060;2023-08-07T13:21:51;46.97;;;3.70;;
2838;SDS011;1427;48.510;9.060;2023-08-07T13:24:21;46.60;;;3.07;;
2838;SDS011;1427;48.510;9.060;2023-08-07T13:26:49;46.73;;;3.40;;
2838;SDS011;1427;48.510;9.060;2023-08-07T13:29:17;47.30;;;4.67;;
2838;SDS011;1427;48.510;9.060;2023-08-07T13:31:45;47.40;;;3.67;;
2838;SDS011;1427;48.510;9.060;2023-08-07T13:34:14;47.20;;;3.83;;
2838;SDS011;1427;48.510;9.060;2023-08-07T13:36:42;46.93;;;2.93;;
2838;SDS011;1427;48.510;9.060;2023-08-07T13:39:10;46.27;;;3.23;;
2838;SDS011;1427;48.510;9.060;2023-08-07T13:41:41;46.67;;;3.30;;
2838;SDS011;1427;48.510;9.060;2023-08-07T13:44:09;46.10;;;3.10;;
2838;SDS011;1427;48.510;9.060;2023-08-07T13:46:40;46.77;;;3.40;;
2838;SDS011;1427;48.510;9.060;2023-08-07T13:49:08;47.70;;;3.43;;
2838;SDS011;1427;48.510;9.060;2023-08-07T13:51:36;46.17;;;2.93;;
2838;SDS011;1427;48.510;9.060;2023-08-07T13:54:04;46.23;;;3.07;;
2838;SDS011;1427;48.510;9.060;2023-08-07T13:56:32;46.60;;;3.47;;
2838;SDS011;1427;48.510;9.060;2023-08-07T13:59:01;46.60;;;3.50;;
2838;SDS011;1427;48.510;9.060;2023-08-07T14:01:29;46.63;;;3.63;;
2838;SDS011;1427;48.510;9.060;2023-08-07T14:03:59;46.30;;;3.60;;
2838;SDS011;1427;48.510;9.060;2023-08-07T14:06:27;47.17;;;4.23;;
2838;SDS011;1427;48.510;9.060;2023-08-07T14:08:56;47.17;;;3.87;;
2838;SDS011;1427;48.510;9.060;2023-08-07T14:11:24;46.70;;;3.23;;
2838;SDS011;1427;48.510;9.060;2023-08-07T14:13:57;47.83;;;4.23;;
2838;SDS011;1427;48.510;9.060;2023-08-07T14:16:26;47.00;;;3.80;;
2838;SDS011;1427;48.510;9.060;2023-08-07T14:18:55;46.20;;;2.63;;
2838;SDS011;1427;48.510;9.060;2023-08-07T14:21:23;53.57;;;3.80;;
2838;SDS011;1427;48.510;9.060;2023-08-07T14:23:51;47.23;;;3.33;;
2838;SDS011;1427;48.510;9.060;2023-08-07T14:26:19;46.50;;;2.93;;
2838;SDS011;1427;48.510;9.060;2023-08-07T14:28:47;46.80;;;3.30;;
2838;SDS011;1427;48.510;9.060;2023-08-07T14:31:15;46.80;;;3.53;;
2838;SDS011;1427;48.510;9.060;2023-08-07T14:33:44;46.83;;;3.00;;
2838;SDS011;1427;48.510;9.060;2023-08-07T14:36:12;47.37;;;4.40;;
2838;SDS011;1427;48.510;9.060;2023-08-07T14:38:41;46.67;;;3.43;;
2838;SDS011;1427;48.510;9.060;2023-08-07T14:41:09;46.40;;;2.87;;
2838;SDS011;1427;48.510;9.060;2023-08-07T14:43:37;47.07;;;3.60;;
2838;SDS011;1427;48.510;9.060;2023-08-07T14:46:05;47.60;;;3.80;;
2838;SDS011;1427;48.510;9.060;2023-08-07T14:48:33;47.17;;;3.07;;
2838;SDS011;1427;48.510;9.060;2023-08-07T14:51:02;46.90;;;3.70;;
2838;SDS011;1427;48.510;9.060;2023-08-07T14:53:31;46.57;;;3.43;;
2838;SDS011;1427;48.510;9.060;2023-08-07T14:56:02;47.13;;;3.90;;
2838;SDS011;1427;48.510;9.060;2023-08-07T14:58:30;47.17;;;3.70;;
2838;SDS011;1427;48.510;9.060;2023-08-07T15:00:59;47.00;;;3.87;;
2838;SDS011;1427;48.510;9.060;2023-08-07T15:03:27;47.53;;;4.20;;
2838;SDS011;1427;48.510;9.060;2023-08-07T15:05:55;46.27;;;3.00;;
2838;SDS011;1427;48.510;9.060;2023-08-07T15:08:25;46.50;;;3.17;;
2838;SDS011;1427;48.510;9.060;2023-08-07T15:10:53;46.97;;;3.33;;